Time;durP1;ratioP1;P1;durP2;ratioP2;P2;SDS_P1;SDS_P2;PMS_P1;PMS_P2;Temp;Humidity;BMP_temperature;BMP_pressure;BME280_temperature;BME280_humidity;BME280_pressure;Samples;Min_cycle;Max_cycle;Signal;HPM_P1;HPM_P2
2022/09/15 00:00:31;;;;;;;10.17;6.93;;;15.50;99.90;;;;;;4937978;23;20333;-81
2022/09/15 00:02:58;;;;;;;12.40;7.07;;;15.50;99.90;;;;;;4896004;23;20619;-84
2022/09/15 00:06:15;;;;;;;11.63;7.17;;;15.50;99.90;;;;;;4919745;29;20194;-84
2022/09/15 00:08:43;;;;;;;17.20;7.67;;;15.60;99.90;;;;;;4935578;29;20549;-83
2022/09/15 00:11:15;;;;;;;13.33;7.27;;;15.60;99.90;;;;;;4904142;29;20213;-83
2022/09/15 00:13:45;;;;;;;12.33;7.00;;;15.60;99.90;;;;;;4944133;23;20242;-83
2022/09/15 00:16:13;;;;;;;14.17;7.57;;;15.60;99.90;;;;;;4919633;29;20198;-84
2022/09/15 00:18:45;;;;;;;13.50;7.57;;;15.60;99.90;;;;;;4919623;29;20343;-84
2022/09/15 00:21:23;;;;;;;50.00;12.50;;;15.60;99.90;;;;;;4919470;29;20227;-84
2022/09/15 00:23:50;;;;;;;13.40;7.60;;;15.60;99.90;;;;;;4919135;29;20230;-85
2022/09/15 00:26:30;;;;;;;22.73;8.80;;;15.50;99.90;;;;;;4904297;29;20543;-84
2022/09/15 00:28:58;;;;;;;11.03;7.77;;;15.50;99.90;;;;;;4919644;29;20562;-85
2022/09/15 00:31:34;;;;;;;14.23;8.03;;;15.60;99.90;;;;;;4936633;29;20199;-85
2022/09/15 00:34:06;;;;;;;15.67;7.93;;;15.60;99.90;;;;;;4936893;29;20202;-84
2022/09/15 00:36:33;;;;;;;13.70;8.00;;;15.60;99.90;;;;;;4920444;29;20203;-84
2022/09/15 00:39:00;;;;;;;15.73;8.30;;;15.60;99.90;;;;;;4936932;29;20214;-84
2022/09/15 00:41:28;;;;;;;13.30;8.60;;;15.50;99.90;;;;;;4919436;29;20599;-85
2022/09/15 00:44:05;;;;;;;15.97;9.00;;;15.50;99.90;;;;;;4919345;29;20203;-84
2022/09/15 00:46:53;;;;;;;12.87;8.30;;;15.50;99.90;;;;;;4919364;29;20352;-84
2022/09/15 00:49:41;;;;;;;14.37;8.73;;;15.50;99.90;;;;;;4908703;29;20715;-85
2022/09/15 00:52:33;;;;;;;13.47;8.60;;;15.50;99.90;;;;;;4919074;29;20213;-83
2022/09/15 00:55:24;;;;;;;13.97;9.00;;;15.50;99.90;;;;;;4936078;29;20601;-81
2022/09/15 00:58:15;;;;;;;17.23;9.33;;;15.50;99.90;;;;;;4919066;29;20679;-81
2022/09/15 01:00:54;;;;;;;16.20;9.63;;;15.60;99.90;;;;;;4918730;29;20289;-83
2022/09/15 01:03:23;;;;;;;13.87;9.10;;;15.60;99.90;;;;;;4919276;29;20221;-83
2022/09/15 01:09:12;;;;;;;14.87;9.23;;;15.60;99.90;;;;;;4935977;29;20557;-81
2022/09/15 01:11:39;;;;;;;18.77;9.90;;;15.50;99.90;;;;;;4918825;29;20202;-82
2022/09/15 01:14:13;;;;;;;19.23;9.70;;;15.50;99.90;;;;;;4935114;29;20231;-82
2022/09/15 01:17:03;;;;;;;16.93;9.30;;;15.40;99.90;;;;;;4918515;29;20632;-85
2022/09/15 01:20:55;;;;;;;17.00;9.53;;;15.50;99.90;;;;;;4879948;29;20231;-83
2022/09/15 01:23:47;;;;;;;16.63;9.90;;;15.40;99.90;;;;;;4927228;23;20556;-83
2022/09/15 01:26:37;;;;;;;18.07;9.67;;;15.40;99.90;;;;;;4937494;29;20209;-86
2022/09/15 01:29:25;;;;;;;15.17;8.97;;;15.50;99.90;;;;;;4918314;29;20210;-83
2022/09/15 01:35:47;;;;;;;18.27;9.90;;;15.40;99.90;;;;;;4943413;29;20292;-83
2022/09/15 01:38:36;;;;;;;22.50;10.70;;;15.40;99.90;;;;;;4903925;29;20214;-83
2022/09/15 01:41:27;;;;;;;16.57;10.47;;;15.30;99.90;;;;;;4905587;29;20248;-85
2022/09/15 01:44:04;;;;;;;19.20;10.80;;;15.40;99.90;;;;;;4922033;23;20257;-83
2022/09/15 01:46:45;;;;;;;16.43;10.27;;;15.30;99.90;;;;;;4924400;29;20194;-84
2022/09/15 01:49:18;;;;;;;15.23;10.00;;;15.30;99.90;;;;;;4908652;29;20214;-84
2022/09/15 01:51:51;;;;;;;17.67;10.70;;;15.30;99.90;;;;;;4924627;29;20202;-82
2022/09/15 01:54:37;;;;;;;19.30;11.10;;;15.40;99.90;;;;;;4924581;29;20195;-82
2022/09/15 01:57:04;;;;;;;17.57;10.30;;;15.40;99.90;;;;;;4942106;29;20211;-83
2022/09/15 01:59:33;;;;;;;17.67;10.93;;;15.30;99.90;;;;;;4924803;29;20209;-85
2022/09/15 02:02:41;;;;;;;16.43;10.70;;;15.30;99.90;;;;;;4924443;29;20230;-83
2022/09/15 02:05:34;;;;;;;19.13;10.70;;;15.30;99.90;;;;;;4915272;29;20664;-83
2022/09/15 02:08:11;;;;;;;18.10;10.83;;;15.30;99.90;;;;;;4924642;29;20206;-83
2022/09/15 02:10:58;;;;;;;17.97;11.27;;;15.20;99.90;;;;;;4924421;29;20296;-83
2022/09/15 02:13:31;;;;;;;17.07;10.57;;;15.20;99.90;;;;;;4928318;29;20556;-82
2022/09/15 02:15:59;;;;;;;18.80;11.20;;;15.20;99.90;;;;;;4940225;29;20206;-85
2022/09/15 02:18:44;;;;;;;18.63;10.97;;;15.20;99.90;;;;;;4941641;29;20195;-83
2022/09/15 02:21:18;;;;;;;20.60;11.93;;;15.10;99.90;;;;;;4925117;29;20313;-84
2022/09/15 02:23:52;;;;;;;19.90;11.60;;;15.10;99.90;;;;;;4925496;29;20233;-84
2022/09/15 02:26:25;;;;;;;16.57;11.30;;;15.20;99.90;;;;;;4924532;29;20194;-83
2022/09/15 02:28:55;;;;;;;16.20;10.80;;;15.20;99.90;;;;;;4941672;29;20233;-83
2022/09/15 02:39:18;;;;;;;19.33;11.37;;;15.10;99.90;;;;;;5322831;23;20242;-84
2022/09/15 02:42:05;;;;;;;19.37;12.20;;;15.20;99.90;;;;;;5002383;23;20249;-82
2022/09/15 02:44:32;;;;;;;20.80;12.27;;;15.20;99.90;;;;;;5002451;23;20661;-83
2022/09/15 02:47:00;;;;;;;19.20;12.17;;;15.10;99.90;;;;;;4924071;29;20195;-84
2022/09/15 02:49:27;;;;;;;19.50;12.07;;;15.20;99.90;;;;;;4940350;29;20731;-84
2022/09/15 02:51:54;;;;;;;17.50;11.67;;;15.10;99.90;;;;;;4940000;29;20523;-84
2022/09/15 02:54:21;;;;;;;16.67;11.70;;;15.10;99.90;;;;;;4940398;29;20202;-83
2022/09/15 02:56:48;;;;;;;15.60;11.63;;;15.10;99.90;;;;;;4940270;28;20201;-83
2022/09/15 02:59:15;;;;;;;19.93;12.17;;;15.10;99.90;;;;;;4940135;29;20202;-85
2022/09/15 03:01:43;;;;;;;19.10;12.83;;;15.10;99.90;;;;;;4939885;29;20399;-84
2022/09/15 03:04:10;;;;;;;22.33;13.33;;;15.10;99.90;;;;;;4957464;29;20723;-83
2022/09/15 03:06:37;;;;;;;16.90;11.73;;;14.90;99.90;;;;;;4940117;29;20210;-83
2022/09/15 03:09:07;;;;;;;20.00;12.60;;;14.90;99.90;;;;;;4924354;29;20213;-84
2022/09/15 03:11:35;;;;;;;21.90;13.20;;;14.90;99.90;;;;;;4940054;29;20205;-83
2022/09/15 03:14:05;;;;;;;19.87;13.33;;;14.90;99.90;;;;;;4939770;29;20212;-82
2022/09/15 03:16:35;;;;;;;20.73;13.37;;;14.90;99.90;;;;;;4924162;29;20206;-83
2022/09/15 03:19:03;;;;;;;20.83;13.03;;;14.90;99.90;;;;;;4941097;29;20715;-85
2022/09/15 03:21:56;;;;;;;22.27;13.33;;;15.00;99.90;;;;;;4939377;29;20229;-85
2022/09/15 03:24:37;;;;;;;22.37;12.63;;;15.00;99.90;;;;;;4859430;29;20625;-85
2022/09/15 03:27:04;;;;;;;20.70;13.33;;;15.00;99.90;;;;;;4860402;29;20236;-84
2022/09/15 03:29:31;;;;;;;19.97;13.03;;;15.10;99.90;;;;;;4860392;29;20568;-83
2022/09/15 03:31:58;;;;;;;17.40;12.57;;;15.00;99.90;;;;;;4844873;29;20208;-84
2022/09/15 03:34:25;;;;;;;20.07;12.93;;;15.00;99.90;;;;;;4844752;29;20249;-83
2022/09/15 03:36:52;;;;;;;19.37;13.33;;;15.00;99.90;;;;;;4845136;29;20237;-83
2022/09/15 03:39:19;;;;;;;18.20;12.27;;;15.00;99.90;;;;;;4845383;29;20202;-82
2022/09/15 03:41:47;;;;;;;20.60;12.83;;;15.00;99.90;;;;;;4845006;29;20243;-82
2022/09/15 03:44:14;;;;;;;21.70;13.83;;;15.00;99.90;;;;;;4844748;29;20235;-83
2022/09/15 03:46:41;;;;;;;20.60;13.27;;;15.00;99.90;;;;;;4844874;29;20217;-83
2022/09/15 03:49:08;;;;;;;20.47;13.73;;;15.00;99.90;;;;;;4844443;29;20212;-83
2022/09/15 03:51:34;;;;;;;23.37;14.20;;;14.90;99.90;;;;;;4859914;29;20229;-83
2022/09/15 03:54:02;;;;;;;20.10;13.83;;;14.90;99.90;;;;;;4844607;29;20258;-84
2022/09/15 03:56:30;;;;;;;20.03;13.63;;;14.80;99.90;;;;;;4844187;29;20206;-84
2022/09/15 03:58:58;;;;;;;22.43;14.43;;;14.80;99.90;;;;;;4829082;29;20221;-83
2022/09/15 04:01:25;;;;;;;22.83;14.07;;;14.70;99.90;;;;;;4890919;29;20229;-83
2022/09/15 04:04:08;;;;;;;23.00;14.10;;;14.70;99.90;;;;;;4923202;29;20678;-83
2022/09/15 04:09:42;;;;;;;18.73;14.27;;;14.60;99.90;;;;;;5257090;23;20234;-82
2022/09/15 04:12:18;;;;;;;20.23;14.30;;;14.60;99.90;;;;;;4903200;29;20234;-84
2022/09/15 04:14:46;;;;;;;23.53;14.93;;;14.60;99.90;;;;;;4920328;29;20725;-82
2022/09/15 04:17:14;;;;;;;20.63;13.83;;;14.70;99.90;;;;;;4936674;29;20194;-83
2022/09/15 04:19:41;;;;;;;22.63;13.73;;;14.80;99.90;;;;;;4920011;29;20207;-84
2022/09/15 04:22:08;;;;;;;21.50;14.80;;;14.80;99.90;;;;;;4919488;29;20233;-82
2022/09/15 04:24:41;;;;;;;22.97;14.27;;;14.80;99.90;;;;;;4919704;29;20195;-84
2022/09/15 04:27:10;;;;;;;20.20;13.90;;;14.80;99.90;;;;;;4920036;29;20711;-81
2022/09/15 04:29:36;;;;;;;21.53;13.70;;;14.70;99.90;;;;;;4919774;29;20210;-83
2022/09/15 04:32:07;;;;;;;21.17;13.47;;;14.70;99.90;;;;;;4930506;23;20287;-84
2022/09/15 04:34:43;;;;;;;24.07;13.07;;;14.80;99.90;;;;;;4938521;29;20698;-84
2022/09/15 04:37:27;;;;;;;19.23;13.40;;;14.70;99.90;;;;;;4938305;29;20197;-84
2022/09/15 04:39:55;;;;;;;21.07;13.07;;;14.80;99.90;;;;;;4922367;29;20212;-83
2022/09/15 04:45:01;;;;;;;23.47;13.47;;;14.80;99.90;;;;;;4952851;29;20217;-82
2022/09/15 04:47:28;;;;;;;18.43;12.27;;;14.80;99.90;;;;;;4944405;23;20237;-82
2022/09/15 04:49:55;;;;;;;18.73;12.63;;;14.70;99.90;;;;;;4938245;29;20200;-81
2022/09/15 04:52:21;;;;;;;20.60;12.73;;;14.70;99.90;;;;;;4922245;29;20198;-81
2022/09/15 04:54:54;;;;;;;21.03;13.33;;;14.70;99.90;;;;;;4938531;29;20645;-83
2022/09/15 04:57:21;;;;;;;18.10;12.63;;;14.80;99.90;;;;;;4933914;29;20219;-81
2022/09/15 04:59:48;;;;;;;20.87;12.27;;;14.80;99.90;;;;;;4903660;29;20293;-81
2022/09/15 05:02:18;;;;;;;21.13;11.87;;;14.80;99.90;;;;;;4917894;29;20692;-83
2022/09/15 05:04:51;;;;;;;20.57;11.87;;;14.80;99.90;;;;;;4935861;29;20283;-82
2022/09/15 05:07:36;;;;;;;23.43;12.37;;;14.80;99.90;;;;;;4918646;29;20203;-82
2022/09/15 05:10:13;;;;;;;18.60;12.37;;;14.90;99.90;;;;;;4902555;29;20230;-82
2022/09/15 05:12:42;;;;;;;18.67;11.97;;;14.80;99.90;;;;;;4918427;29;20210;-86
2022/09/15 05:15:17;;;;;;;17.93;11.73;;;14.80;99.90;;;;;;4903246;29;20214;-82
2022/09/15 05:17:53;;;;;;;28.10;12.17;;;14.80;99.90;;;;;;4911398;29;20199;-82
2022/09/15 05:20:20;;;;;;;20.80;11.93;;;14.70;99.90;;;;;;4900025;29;20230;-81
2022/09/15 05:22:46;;;;;;;21.77;12.00;;;14.70;99.90;;;;;;4899595;29;20226;-84
2022/09/15 05:25:13;;;;;;;29.93;13.27;;;14.80;99.90;;;;;;4916891;29;20211;-83
2022/09/15 05:27:40;;;;;;;18.83;11.03;;;14.80;99.90;;;;;;4918349;29;20660;-83
2022/09/15 05:30:07;;;;;;;17.10;10.60;;;14.80;99.90;;;;;;4935652;29;20608;-80
2022/09/15 05:33:42;;;;;;;21.20;11.23;;;14.80;99.90;;;;;;4918588;29;20199;-83
2022/09/15 05:36:09;;;;;;;17.20;11.03;;;14.90;99.90;;;;;;5061047;23;20249;-82
2022/09/15 05:38:55;;;;;;;28.90;12.63;;;14.90;99.90;;;;;;4929539;23;20795;-83
2022/09/15 05:41:58;;;;;;;19.33;11.97;;;14.90;99.90;;;;;;5129056;23;20213;-81
2022/09/15 05:45:06;;;;;;;23.03;12.47;;;14.80;99.90;;;;;;4937061;29;20529;-82
2022/09/15 05:53:11;;;;;;;16.93;10.50;;;14.90;99.90;;;;;;5327273;23;20335;-82
2022/09/15 05:55:37;;;;;;;19.43;11.47;;;14.70;99.90;;;;;;4918766;29;20198;-86
2022/09/15 05:58:04;;;;;;;20.97;11.30;;;14.80;99.90;;;;;;4909979;29;20287;-85
2022/09/15 06:00:32;;;;;;;19.87;10.10;;;14.80;99.90;;;;;;4898929;29;20200;-84
2022/09/15 06:02:58;;;;;;;17.40;10.17;;;14.90;99.90;;;;;;4899096;29;20354;-85
2022/09/15 06:05:26;;;;;;;18.70;9.83;;;14.90;99.90;;;;;;4916616;29;20196;-86
2022/09/15 06:07:54;;;;;;;22.43;10.07;;;14.80;99.90;;;;;;4899505;29;20203;-81
2022/09/15 06:10:23;;;;;;;21.83;10.33;;;14.90;99.90;;;;;;4917524;29;20196;-88
2022/09/15 06:12:54;;;;;;;22.10;12.07;;;14.90;99.90;;;;;;4899887;29;20203;-82
2022/09/15 06:15:22;;;;;;;21.30;11.73;;;14.80;99.90;;;;;;4914244;29;20235;-85
2022/09/15 06:17:49;;;;;;;23.63;11.03;;;14.90;99.90;;;;;;4899312;29;20213;-86
2022/09/15 06:20:20;;;;;;;20.37;10.40;;;14.90;99.90;;;;;;4916504;29;20188;-87
2022/09/15 06:22:47;;;;;;;21.33;10.10;;;15.10;99.90;;;;;;4919622;29;20314;-85
2022/09/15 06:25:17;;;;;;;13.80;8.77;;;15.20;99.90;;;;;;4901878;29;20203;-86
2022/09/15 06:27:44;;;;;;;15.93;9.40;;;15.30;99.90;;;;;;4887056;29;20658;-84
2022/09/15 06:30:11;;;;;;;16.97;10.23;;;15.30;99.90;;;;;;4914625;29;20219;-86
2022/09/15 06:32:41;;;;;;;16.20;8.60;;;15.20;99.90;;;;;;4920013;29;20195;-86
2022/09/15 06:35:22;;;;;;;21.00;9.27;;;15.30;99.90;;;;;;4901748;29;20218;-86
2022/09/15 06:37:49;;;;;;;14.67;8.47;;;15.50;99.90;;;;;;4904078;29;20618;-86
2022/09/15 06:40:16;;;;;;;14.57;8.20;;;15.60;99.90;;;;;;4887976;29;20271;-85
2022/09/15 06:42:43;;;;;;;14.00;7.87;;;15.60;99.90;;;;;;4902535;29;20654;-85
2022/09/15 06:45:10;;;;;;;14.50;7.47;;;15.60;99.90;;;;;;4901971;29;20185;-87
2022/09/15 06:47:37;;;;;;;12.63;7.47;;;15.70;99.90;;;;;;4902608;29;20258;-87
2022/09/15 06:50:04;;;;;;;12.93;7.70;;;15.80;99.90;;;;;;4902259;29;20230;-88
2022/09/15 06:52:32;;;;;;;13.67;6.87;;;15.80;99.90;;;;;;4919487;29;20196;-90
2022/09/15 06:55:00;;;;;;;13.40;7.00;;;15.80;99.90;;;;;;4887265;29;20295;-86
2022/09/15 06:57:27;;;;;;;15.37;6.83;;;15.80;99.90;;;;;;4901935;29;20235;-85
2022/09/15 06:59:54;;;;;;;14.57;6.67;;;15.80;99.90;;;;;;4901515;29;20204;-86
2022/09/15 07:02:21;;;;;;;14.87;6.30;;;15.90;99.90;;;;;;4901858;29;20219;-85
2022/09/15 07:04:50;;;;;;;15.20;6.27;;;15.90;99.90;;;;;;4919117;29;20286;-87
2022/09/15 07:07:17;;;;;;;15.70;6.77;;;16.10;99.90;;;;;;4902141;29;20204;-87
2022/09/15 07:09:44;;;;;;;14.80;5.47;;;16.30;99.90;;;;;;4919178;29;20195;-86
2022/09/15 07:12:14;;;;;;;15.77;5.10;;;16.60;99.90;;;;;;4886977;29;20675;-87
2022/09/15 07:14:41;;;;;;;11.00;4.60;;;16.40;99.90;;;;;;4919141;29;20196;-84
2022/09/15 07:17:08;;;;;;;10.60;3.80;;;16.20;99.90;;;;;;4902222;29;20200;-84
2022/09/15 07:19:35;;;;;;;11.30;4.10;;;16.10;99.90;;;;;;4918841;29;20203;-85
2022/09/15 07:22:02;;;;;;;6.80;3.53;;;16.20;99.90;;;;;;4901675;29;20282;-84
2022/09/15 07:24:29;;;;;;;10.33;3.50;;;16.30;99.90;;;;;;4901913;29;20203;-83
2022/09/15 07:26:55;;;;;;;8.90;3.40;;;16.50;99.90;;;;;;4918723;29;20207;-81
2022/09/15 07:29:22;;;;;;;12.47;3.70;;;16.60;99.90;;;;;;4902195;29;20210;-77
2022/09/15 07:31:49;;;;;;;8.13;3.43;;;16.70;99.90;;;;;;4901786;29;20213;-82
2022/09/15 07:34:16;;;;;;;10.40;3.40;;;16.50;99.90;;;;;;4902027;29;20259;-82
2022/09/15 07:36:43;;;;;;;9.90;3.07;;;16.40;99.90;;;;;;4902560;29;20559;-84
2022/09/15 07:39:10;;;;;;;12.67;3.87;;;16.50;99.90;;;;;;4922550;29;20199;-80
2022/09/15 07:41:37;;;;;;;16.07;4.50;;;16.70;99.90;;;;;;4885828;29;20227;-84
2022/09/15 07:44:05;;;;;;;8.07;3.67;;;16.80;99.90;;;;;;4901913;29;20207;-80
2022/09/15 07:46:32;;;;;;;8.83;3.43;;;16.90;99.90;;;;;;4900897;29;20598;-83
2022/09/15 07:49:01;;;;;;;12.37;3.70;;;17.10;99.90;;;;;;4901561;29;20298;-84
2022/09/15 07:51:29;;;;;;;7.13;3.00;;;17.20;99.90;;;;;;4900821;29;20646;-80
2022/09/15 07:53:56;;;;;;;11.77;3.73;;;17.10;99.90;;;;;;4885042;29;20231;-81
2022/09/15 07:56:23;;;;;;;7.77;3.10;;;17.20;99.90;;;;;;4901364;29;20211;-82
2022/09/15 07:58:51;;;;;;;14.63;3.70;;;17.10;99.90;;;;;;4901090;29;20230;-82
2022/09/15 08:01:19;;;;;;;9.80;3.57;;;17.10;99.90;;;;;;4901336;29;20721;-81
2022/09/15 08:03:48;;;;;;;9.13;3.30;;;17.00;99.90;;;;;;4901177;29;20234;-77
2022/09/15 08:06:21;;;;;;;8.70;3.37;;;17.10;99.90;;;;;;4917961;29;20192;-77
2022/09/15 08:08:49;;;;;;;7.53;2.93;;;17.20;99.90;;;;;;4901215;29;20697;-82
2022/09/15 08:11:20;;;;;;;7.27;3.40;;;17.50;99.90;;;;;;4901007;29;20210;-83
2022/09/15 08:14:01;;;;;;;7.50;3.10;;;17.40;99.90;;;;;;5011321;23;20239;-84
2022/09/15 08:16:28;;;;;;;7.33;3.00;;;17.50;99.90;;;;;;4901187;29;20207;-83
2022/09/15 08:19:04;;;;;;;10.87;3.80;;;17.80;99.90;;;;;;4916614;29;20206;-81
2022/09/15 08:21:31;;;;;;;11.03;3.30;;;17.80;99.90;;;;;;4923187;29;20253;-81
2022/09/15 08:23:59;;;;;;;8.73;4.00;;;17.90;99.90;;;;;;4916166;29;20203;-81
2022/09/15 08:26:28;;;;;;;7.43;4.20;;;17.90;99.90;;;;;;4914006;29;20195;-79
2022/09/15 08:28:55;;;;;;;11.47;4.17;;;17.90;99.90;;;;;;4898726;29;20210;-82
2022/09/15 08:31:23;;;;;;;7.10;4.60;;;18.00;99.90;;;;;;4911129;29;20302;-80
2022/09/15 08:33:54;;;;;;;10.90;4.13;;;18.20;99.90;;;;;;4895500;29;20227;-77
2022/09/15 08:36:21;;;;;;;7.53;4.30;;;18.20;99.90;;;;;;4899233;29;20284;-81
2022/09/15 08:38:48;;;;;;;8.43;4.03;;;18.30;99.90;;;;;;4915816;29;20199;-78
2022/09/15 08:41:36;;;;;;;6.97;3.93;;;18.60;99.90;;;;;;4915394;29;20196;-82
2022/09/15 08:44:30;;;;;;;7.90;3.53;;;19.20;99.90;;;;;;4914902;29;20223;-83
2022/09/15 08:47:12;;;;;;;7.80;3.40;;;20.10;99.90;;;;;;4899502;29;20684;-82
2022/09/15 08:50:01;;;;;;;5.47;3.40;;;20.50;99.90;;;;;;4915003;29;20187;-85
2022/09/15 08:55:56;;;;;;;8.63;3.40;;;21.60;99.90;;;;;;4944514;23;20238;-74
2022/09/15 08:58:27;;;;;;;6.93;2.67;;;22.00;99.90;;;;;;4925904;29;20222;-80
2022/09/15 09:01:12;;;;;;;4.87;2.30;;;22.30;99.90;;;;;;4935509;29;20680;-83
2022/09/15 09:03:51;;;;;;;6.63;2.70;;;22.20;99.90;;;;;;4953200;29;20600;-80
2022/09/15 09:06:36;;;;;;;4.00;2.30;;;22.20;99.90;;;;;;4935735;29;20655;-82
2022/09/15 09:09:25;;;;;;;9.50;2.50;;;22.50;99.90;;;;;;4936675;29;20814;-79
2022/09/15 09:12:31;;;;;;;5.20;2.10;;;22.50;99.90;;;;;;4934189;29;20194;-81
2022/09/15 09:15:18;;;;;;;4.33;2.37;;;22.50;99.90;;;;;;4936814;29;20206;-80
2022/09/15 09:18:16;;;;;;;8.87;2.60;;;22.50;99.90;;;;;;4952049;29;20190;-82
2022/09/15 09:21:11;;;;;;;7.20;1.97;;;22.20;99.90;;;;;;4936996;29;20190;-83
2022/09/15 09:24:17;;;;;;;6.23;2.00;;;22.80;99.90;;;;;;4937991;29;20545;-81
2022/09/15 09:26:52;;;;;;;4.90;1.90;;;23.60;99.90;;;;;;4918436;29;20814;-78
2022/09/15 09:29:38;;;;;;;7.23;1.80;;;23.30;99.90;;;;;;4933590;29;20221;-82
2022/09/15 09:32:17;;;;;;;5.53;1.60;;;23.40;99.90;;;;;;4935183;29;20640;-79
2022/09/15 09:35:00;;;;;;;5.07;1.70;;;23.20;99.90;;;;;;4943127;29;20199;-82
2022/09/15 09:37:28;;;;;;;4.47;1.80;;;23.00;99.90;;;;;;4924840;29;20578;-83
2022/09/15 09:39:54;;;;;;;8.53;2.03;;;23.40;99.90;;;;;;4937682;29;20592;-82
2022/09/15 09:42:29;;;;;;;6.63;1.90;;;23.60;99.90;;;;;;4932892;29;20683;-84
2022/09/15 09:44:56;;;;;;;3.38;2.10;;;23.80;99.90;;;;;;4936574;29;20193;-79
2022/09/15 09:47:28;;;;;;;9.90;2.40;;;24.50;99.90;;;;;;4935259;29;20202;-81
2022/09/15 09:49:55;;;;;;;4.87;1.80;;;24.40;99.90;;;;;;4940070;29;20195;-81
2022/09/15 09:52:36;;;;;;;6.78;1.70;;;24.90;99.90;;;;;;4938211;29;20648;-84
2022/09/15 09:55:26;;;;;;;5.03;1.70;;;25.10;99.40;;;;;;4924442;29;20592;-81
2022/09/15 09:57:53;;;;;;;5.32;1.23;;;25.00;99.90;;;;;;4929845;29;20229;-77
2022/09/15 10:00:57;;;;;;;5.13;1.40;;;25.10;99.50;;;;;;4948533;29;20206;-83
2022/09/15 10:03:25;;;;;;;4.55;1.60;;;25.30;98.00;;;;;;4896860;29;20226;-81
2022/09/15 10:06:04;;;;;;;5.18;1.70;;;25.70;98.20;;;;;;4924788;29;20293;-81
2022/09/15 10:08:34;;;;;;;5.68;1.70;;;26.00;97.30;;;;;;4939670;29;20601;-80
2022/09/15 10:11:28;;;;;;;2.67;1.45;;;25.90;96.10;;;;;;4938488;29;20205;-80
2022/09/15 10:13:55;;;;;;;5.72;1.83;;;25.50;95.90;;;;;;4953447;29;20620;-75
2022/09/15 10:16:22;;;;;;;3.42;1.40;;;25.20;94.80;;;;;;4940116;29;20202;-83
2022/09/15 10:18:49;;;;;;;3.78;1.50;;;25.10;95.10;;;;;;4938874;29;20611;-82
2022/09/15 10:21:23;;;;;;;3.28;1.38;;;25.40;96.10;;;;;;4952644;29;20560;-88
2022/09/15 10:23:50;;;;;;;3.53;1.70;;;25.40;94.60;;;;;;4938807;29;20214;-83
2022/09/15 10:26:30;;;;;;;6.78;1.77;;;25.20;94.90;;;;;;4940170;29;20201;-83
2022/09/15 10:29:16;;;;;;;4.03;1.50;;;25.50;94.40;;;;;;4937005;29;20198;-84
2022/09/15 10:31:49;;;;;;;3.30;1.38;;;25.60;93.80;;;;;;4940514;23;20246;-85
2022/09/15 10:34:24;;;;;;;3.20;1.47;;;24.80;93.30;;;;;;4915436;29;20287;-80
2022/09/15 10:37:19;;;;;;;2.77;1.37;;;24.10;94.70;;;;;;4928750;29;20203;-81
2022/09/15 10:39:55;;;;;;;3.00;1.50;;;23.60;94.70;;;;;;4929614;29;20196;-81
2022/09/15 10:42:49;;;;;;;6.13;1.50;;;23.10;95.80;;;;;;4930393;29;20249;-86
2022/09/15 10:45:49;;;;;;;4.93;1.90;;;22.60;97.30;;;;;;4917514;29;20349;-88
2022/09/15 10:48:44;;;;;;;3.43;1.50;;;22.80;96.50;;;;;;4919713;29;20207;-86
2022/09/15 10:51:32;;;;;;;4.50;1.77;;;23.20;96.50;;;;;;4903629;29;20595;-87
2022/09/15 10:54:37;;;;;;;3.00;1.60;;;23.10;96.00;;;;;;4918584;29;20199;-86
2022/09/15 10:57:16;;;;;;;6.90;1.80;;;23.10;96.50;;;;;;4919314;29;20206;-87
2022/09/15 10:59:58;;;;;;;3.40;1.73;;;22.60;97.10;;;;;;4933941;29;20715;-89
2022/09/15 11:02:44;;;;;;;4.53;1.70;;;22.50;98.20;;;;;;4914561;29;20211;-85
2022/09/15 11:05:40;;;;;;;3.37;1.60;;;22.70;97.20;;;;;;4900815;29;20191;-86
2022/09/15 11:08:26;;;;;;;5.10;1.60;;;22.10;97.80;;;;;;4908431;29;20227;-87
2022/09/15 11:11:06;;;;;;;6.93;1.80;;;21.50;99.20;;;;;;4915901;29;20191;-85
2022/09/15 11:14:05;;;;;;;3.20;1.77;;;21.20;99.90;;;;;;4912194;29;20203;-87
2022/09/15 11:16:42;;;;;;;3.00;1.37;;;21.20;99.90;;;;;;4913599;29;20215;-83
2022/09/15 11:19:09;;;;;;;4.63;1.50;;;21.40;99.90;;;;;;4920648;29;20195;-88
2022/09/15 11:21:48;;;;;;;4.57;1.57;;;21.60;99.90;;;;;;4906433;29;20252;-87
2022/09/15 11:24:26;;;;;;;4.07;1.70;;;21.30;99.90;;;;;;4914476;29;20268;-89
2022/09/15 11:32:28;;;;;;;3.37;1.77;;;20.50;99.90;;;;;;4917596;29;20848;-88
2022/09/15 11:35:00;;;;;;;4.80;1.70;;;20.30;99.90;;;;;;4913550;29;20227;-82
2022/09/15 11:37:37;;;;;;;5.97;1.80;;;20.10;99.90;;;;;;4914936;29;20206;-90
2022/09/15 11:40:16;;;;;;;4.93;1.43;;;20.40;99.90;;;;;;4929312;29;20246;-82
2022/09/15 11:42:51;;;;;;;3.73;1.70;;;20.50;99.90;;;;;;4913270;29;20218;-84
2022/09/15 11:45:24;;;;;;;4.03;1.77;;;20.80;99.90;;;;;;4914565;29;20191;-77
2022/09/15 11:48:12;;;;;;;5.40;1.60;;;21.20;99.90;;;;;;4931145;29;20191;-84
2022/09/15 11:50:44;;;;;;;3.53;1.70;;;20.90;99.90;;;;;;4910890;29;20223;-85
2022/09/15 11:53:26;;;;;;;2.53;1.40;;;20.90;99.90;;;;;;4912712;29;20203;-86
2022/09/15 11:56:20;;;;;;;4.97;1.73;;;20.70;99.90;;;;;;4914972;29;20213;-84
2022/09/15 11:59:08;;;;;;;8.20;2.03;;;20.60;99.90;;;;;;4917667;29;20226;-86
2022/09/15 12:01:58;;;;;;;3.73;1.80;;;20.50;99.90;;;;;;4919054;29;20206;-84
2022/09/15 12:04:32;;;;;;;3.77;1.73;;;20.50;99.90;;;;;;4938809;29;20218;-86
2022/09/15 12:07:22;;;;;;;5.10;1.70;;;20.30;99.90;;;;;;4924155;29;20673;-85
2022/09/15 12:09:49;;;;;;;3.53;1.70;;;20.20;99.90;;;;;;4906138;29;20202;-85
2022/09/15 12:12:19;;;;;;;3.60;1.60;;;20.20;99.90;;;;;;4921282;29;20641;-86
2022/09/15 12:14:48;;;;;;;3.70;1.50;;;20.10;99.90;;;;;;4922804;29;20200;-86
2022/09/15 12:17:45;;;;;;;3.87;1.50;;;20.20;99.90;;;;;;4896936;29;20207;-85
2022/09/15 12:20:27;;;;;;;3.80;1.70;;;20.00;99.90;;;;;;4915075;29;20228;-86
2022/09/15 12:23:04;;;;;;;4.20;1.80;;;19.70;99.90;;;;;;4896575;29;20232;-80
2022/09/15 12:25:58;;;;;;;8.80;2.30;;;19.40;99.90;;;;;;4898755;29;20199;-85
2022/09/15 12:28:36;;;;;;;4.20;1.50;;;19.30;99.90;;;;;;4881868;29;20192;-80
2022/09/15 12:31:24;;;;;;;6.80;1.87;;;19.10;99.90;;;;;;4881559;29;20243;-83
2022/09/15 12:34:03;;;;;;;6.23;1.70;;;19.20;99.90;;;;;;4884981;29;20211;-84
2022/09/15 12:36:38;;;;;;;8.00;2.27;;;19.30;99.90;;;;;;4912788;29;20196;-80
2022/09/15 12:39:43;;;;;;;3.17;1.60;;;19.30;99.90;;;;;;4881991;29;20230;-81
2022/09/15 12:42:19;;;;;;;3.17;1.63;;;19.30;99.90;;;;;;4842180;29;20661;-80
2022/09/15 12:44:48;;;;;;;4.50;1.80;;;19.10;99.90;;;;;;4842273;29;20666;-86
2022/09/15 12:47:18;;;;;;;5.53;1.80;;;19.10;99.90;;;;;;4857934;29;20217;-86
2022/09/15 12:50:04;;;;;;;3.60;1.67;;;19.20;99.90;;;;;;4858744;29;20202;-89
2022/09/15 12:52:59;;;;;;;4.77;1.80;;;19.10;99.90;;;;;;4767765;30;20209;-84
2022/09/15 12:55:35;;;;;;;3.77;1.63;;;19.10;99.90;;;;;;4767926;30;20231;-85
2022/09/15 12:58:09;;;;;;;7.33;2.00;;;18.90;99.90;;;;;;4782622;29;20225;-83
2022/09/15 13:00:43;;;;;;;6.20;1.70;;;19.00;99.90;;;;;;4767628;30;20209;-79
2022/09/15 13:03:53;;;;;;;7.20;1.93;;;19.00;99.90;;;;;;4782126;29;20570;-82
2022/09/15 13:06:28;;;;;;;4.30;1.90;;;19.10;99.90;;;;;;4767967;30;20211;-81
2022/09/15 13:13:49;;;;;;;3.33;1.80;;;18.90;99.90;;;;;;4763457;23;20708;-85
2022/09/15 13:16:47;;;;;;;4.00;1.70;;;18.90;99.90;;;;;;4918422;29;20550;-82
2022/09/15 13:19:57;;;;;;;6.13;1.70;;;18.80;99.90;;;;;;4929548;23;20222;-87
2022/09/15 13:22:36;;;;;;;3.53;1.70;;;18.80;99.90;;;;;;4952984;28;20292;-85
2022/09/15 13:25:16;;;;;;;6.77;1.80;;;18.80;99.90;;;;;;4953440;29;20201;-83
2022/09/15 13:27:46;;;;;;;2.63;1.50;;;18.80;99.90;;;;;;4937250;29;20198;-83
2022/09/15 13:30:42;;;;;;;6.00;2.10;;;18.70;99.90;;;;;;4936782;29;20190;-84
2022/09/15 13:33:30;;;;;;;3.57;1.90;;;18.70;99.90;;;;;;4936849;29;20257;-84
2022/09/15 13:36:48;;;;;;;3.90;1.63;;;18.90;99.90;;;;;;4936805;29;20202;-80
2022/09/15 13:40:19;;;;;;;5.17;1.90;;;18.90;99.90;;;;;;4924090;29;20205;-86
2022/09/15 13:50:35;;;;;;;5.33;1.80;;;19.20;99.90;;;;;;4933591;29;20246;-83
2022/09/15 13:53:28;;;;;;;6.30;1.90;;;19.30;99.90;;;;;;4917870;29;20199;-81
2022/09/15 13:55:55;;;;;;;6.63;1.87;;;19.50;99.90;;;;;;4919155;29;20544;-85
2022/09/15 13:58:27;;;;;;;7.57;1.80;;;19.60;99.90;;;;;;4917868;29;20226;-88
2022/09/15 14:01:20;;;;;;;4.37;1.93;;;19.50;99.90;;;;;;4917758;29;20195;-86
2022/09/15 14:34:25;;;;;;;5.80;1.93;;;18.80;99.90;;;;;;4893213;29;20702;-86
2022/09/15 14:37:33;;;;;;;4.03;1.87;;;18.90;99.90;;;;;;4895440;29;20211;-85
2022/09/15 14:40:31;;;;;;;5.93;2.17;;;19.00;99.90;;;;;;4887350;29;20196;-86
2022/09/15 14:45:45;;;;;;;4.77;2.17;;;19.20;99.90;;;;;;4919079;29;20305;-84